Time;durP1;ratioP1;P1;durP2;ratioP2;P2;SDS_P1;SDS_P2;PMS_P1;PMS_P2;Temp;Humidity;BMP_temperature;BMP_pressure;BME280_temperature;BME280_humidity;BME280_pressure;Samples;Min_cycle;Max_cycle;Signal;HPM_P1;HPM_P2
2022/01/01 00:01:26;;;;;;;173.23;107.00;;;7.50;99.90;;;;;;5073261;28;20274;-72
2022/01/01 00:03:52;;;;;;;163.40;103.40;;;7.50;99.90;;;;;;5073084;28;20194;-73
2022/01/01 00:06:18;;;;;;;214.37;148.63;;;7.60;99.90;;;;;;5074137;28;20181;-72
2022/01/01 00:08:44;;;;;;;160.23;109.60;;;7.60;99.90;;;;;;5074222;28;20173;-72
2022/01/01 00:11:10;;;;;;;104.30;67.23;;;7.60;99.90;;;;;;5074082;28;20443;-72
2022/01/01 00:13:35;;;;;;;99.97;72.88;;;7.70;99.90;;;;;;5073503;28;20454;-72
2022/01/01 00:16:01;;;;;;;81.93;51.00;;;7.70;99.90;;;;;;5073699;28;20175;-73
2022/01/01 00:18:26;;;;;;;52.67;33.00;;;7.70;99.90;;;;;;5074028;28;20193;-73
2022/01/01 00:20:52;;;;;;;47.33;24.57;;;7.80;99.90;;;;;;5073772;28;20276;-73
2022/01/01 00:23:17;;;;;;;28.63;19.30;;;7.80;99.90;;;;;;5074067;28;20175;-74
2022/01/01 00:25:43;;;;;;;44.07;28.10;;;7.90;99.90;;;;;;5071152;28;20521;-74
2022/01/01 00:28:10;;;;;;;27.40;18.77;;;8.00;99.90;;;;;;5071447;28;20264;-74
2022/01/01 00:30:35;;;;;;;33.57;19.20;;;8.00;99.90;;;;;;5072359;28;20727;-74
2022/01/01 00:33:02;;;;;;;31.40;19.53;;;8.00;99.90;;;;;;5072272;28;20559;-74
2022/01/01 00:35:28;;;;;;;26.17;18.73;;;8.10;99.90;;;;;;5072187;28;20174;-74
2022/01/01 00:37:53;;;;;;;22.27;15.67;;;8.10;99.90;;;;;;5071852;28;20409;-74
2022/01/01 00:40:19;;;;;;;24.00;18.30;;;8.10;99.90;;;;;;5072300;28;20706;-74
2022/01/01 00:42:44;;;;;;;21.07;16.60;;;8.10;99.90;;;;;;5071710;28;20257;-74
2022/01/01 00:45:10;;;;;;;28.27;15.67;;;8.10;99.90;;;;;;5072417;28;20172;-74
2022/01/01 00:47:36;;;;;;;23.77;15.40;;;8.20;99.90;;;;;;5072415;28;20271;-74
2022/01/01 00:50:02;;;;;;;22.57;16.20;;;8.20;99.90;;;;;;5072243;28;20481;-74
2022/01/01 00:52:28;;;;;;;24.10;17.17;;;8.20;99.90;;;;;;5072038;28;20574;-74
2022/01/01 00:54:53;;;;;;;34.10;19.27;;;8.30;99.90;;;;;;5072184;28;20417;-74
2022/01/01 00:57:19;;;;;;;33.70;21.53;;;8.30;99.90;;;;;;5072182;28;20171;-75
2022/01/01 00:59:45;;;;;;;26.17;18.87;;;8.30;99.90;;;;;;5072011;28;20266;-75
2022/01/01 05:30:46;;;;;;;25.73;16.60;;;7.80;99.90;;;;;;6127967;22;20341;-74
2022/01/01 05:33:11;;;;;;;27.07;15.37;;;7.70;99.90;;;;;;4971170;28;20991;-77
2022/01/01 05:35:37;;;;;;;22.53;15.80;;;7.60;99.90;;;;;;4990913;28;20182;-77
2022/01/01 05:38:03;;;;;;;26.30;16.20;;;7.50;99.90;;;;;;4991934;28;20189;-77
2022/01/01 05:40:30;;;;;;;26.77;15.47;;;7.50;99.90;;;;;;4992159;28;20246;-76
2022/01/01 05:42:56;;;;;;;18.43;13.63;;;7.40;99.90;;;;;;4999960;28;20172;-77
2022/01/01 05:45:21;;;;;;;25.70;14.27;;;7.30;99.90;;;;;;4985736;28;20958;-77
2022/01/01 05:47:47;;;;;;;26.03;14.70;;;7.20;99.90;;;;;;4991267;28;20184;-78
2022/01/01 05:50:12;;;;;;;24.30;15.00;;;7.20;99.90;;;;;;4992032;28;20199;-77
2022/01/01 05:52:38;;;;;;;20.93;13.80;;;7.10;99.90;;;;;;4992074;28;20227;-77
2022/01/01 05:55:03;;;;;;;20.33;14.07;;;7.00;99.90;;;;;;4991910;28;20274;-77
2022/01/01 05:57:29;;;;;;;23.40;16.07;;;6.90;99.90;;;;;;4992040;28;20202;-77
2022/01/01 05:59:54;;;;;;;20.93;14.00;;;6.90;99.90;;;;;;4991895;28;20181;-76
2022/01/01 06:02:20;;;;;;;22.77;15.13;;;6.90;99.90;;;;;;4991475;28;20688;-78
2022/01/01 06:04:45;;;;;;;21.97;13.83;;;6.90;99.90;;;;;;4991884;28;20183;-77
2022/01/01 06:07:11;;;;;;;20.97;14.03;;;6.80;99.90;;;;;;4991764;28;20270;-77
2022/01/01 06:09:36;;;;;;;20.47;14.20;;;6.90;99.90;;;;;;4991783;28;20176;-78
2022/01/01 06:12:02;;;;;;;22.50;13.13;;;6.80;99.90;;;;;;4991320;28;20200;-79
2022/01/01 06:14:28;;;;;;;28.37;15.60;;;6.90;99.90;;;;;;4991747;28;20204;-77
2022/01/01 06:16:53;;;;;;;30.43;16.53;;;6.90;99.90;;;;;;4991871;28;20177;-78
2022/01/01 06:19:19;;;;;;;26.67;14.73;;;6.90;99.90;;;;;;4992030;28;20216;-77
2022/01/01 06:21:44;;;;;;;22.97;13.70;;;6.90;99.90;;;;;;4991775;28;20191;-78
2022/01/01 06:24:10;;;;;;;21.00;14.03;;;7.00;99.90;;;;;;4991699;28;20219;-77
2022/01/01 06:26:36;;;;;;;20.70;13.33;;;7.00;99.90;;;;;;4991892;28;20202;-77
2022/01/01 06:29:02;;;;;;;20.40;13.97;;;7.00;99.90;;;;;;4974176;28;20177;-77
2022/01/01 06:31:28;;;;;;;23.47;13.40;;;7.00;99.90;;;;;;4991625;28;20227;-78
2022/01/01 06:33:54;;;;;;;22.47;12.80;;;7.10;99.90;;;;;;4991854;28;20467;-78
2022/01/01 06:36:19;;;;;;;22.40;12.87;;;7.10;99.90;;;;;;4992183;28;20415;-78
2022/01/01 06:38:45;;;;;;;17.10;12.50;;;7.10;99.90;;;;;;4991841;28;20526;-78
2022/01/01 06:41:12;;;;;;;19.03;13.17;;;7.20;99.90;;;;;;4994466;28;20224;-78
2022/01/01 06:43:38;;;;;;;23.33;12.67;;;7.20;99.90;;;;;;4995437;28;20921;-78
2022/01/01 06:46:05;;;;;;;20.63;13.37;;;7.20;99.90;;;;;;4995434;28;20493;-78
2022/01/01 06:48:30;;;;;;;22.10;11.73;;;7.20;99.90;;;;;;4978033;28;20437;-79
2022/01/01 06:50:56;;;;;;;19.70;11.70;;;7.30;99.90;;;;;;4994974;28;20786;-77
2022/01/01 06:53:21;;;;;;;18.17;11.17;;;7.30;99.90;;;;;;4994933;28;20216;-78
2022/01/01 06:55:47;;;;;;;17.07;11.90;;;7.30;99.90;;;;;;4994954;28;20190;-78
2022/01/01 06:58:12;;;;;;;14.90;12.23;;;7.20;99.90;;;;;;4995837;28;20173;-77
2022/01/01 07:00:38;;;;;;;33.73;13.50;;;7.20;99.90;;;;;;4995541;28;20572;-77
2022/01/01 07:03:04;;;;;;;18.63;11.10;;;7.30;99.90;;;;;;4977121;28;20181;-78
2022/01/01 07:05:29;;;;;;;14.93;11.10;;;7.20;99.90;;;;;;4994711;28;20180;-78
2022/01/01 07:07:55;;;;;;;18.53;10.30;;;7.30;99.90;;;;;;4994433;28;20184;-77
2022/01/01 07:10:21;;;;;;;20.23;11.10;;;7.30;99.90;;;;;;4994519;28;20416;-77
2022/01/01 07:12:46;;;;;;;14.43;10.87;;;7.30;99.90;;;;;;4994071;28;20256;-73
2022/01/01 07:15:12;;;;;;;17.17;11.17;;;7.30;99.90;;;;;;4994559;28;20208;-74
2022/01/01 07:17:38;;;;;;;18.47;11.40;;;7.30;99.90;;;;;;4994537;28;20310;-74
2022/01/01 07:20:04;;;;;;;15.77;10.87;;;7.30;99.90;;;;;;4994255;28;20185;-74
2022/01/01 07:22:30;;;;;;;17.90;10.77;;;7.30;99.90;;;;;;4977034;28;20971;-74
2022/01/01 07:24:56;;;;;;;14.80;9.93;;;7.30;99.90;;;;;;4994250;28;20415;-74
2022/01/01 07:27:23;;;;;;;18.73;10.00;;;7.30;99.90;;;;;;4994377;28;20414;-74
2022/01/01 07:29:49;;;;;;;13.87;10.77;;;7.30;99.90;;;;;;4994263;28;20424;-76
2022/01/01 07:32:14;;;;;;;15.90;11.13;;;7.40;99.90;;;;;;4993831;28;20468;-73
2022/01/01 07:34:40;;;;;;;17.57;10.23;;;7.40;99.90;;;;;;4994148;28;20182;-75
2022/01/01 07:37:05;;;;;;;15.20;9.07;;;7.40;99.90;;;;;;4994094;28;20172;-74
2022/01/01 07:39:31;;;;;;;13.80;8.13;;;7.50;99.90;;;;;;4994068;28;20572;-74
2022/01/01 07:41:56;;;;;;;15.57;9.30;;;7.50;99.90;;;;;;4993841;28;20630;-73
2022/01/01 07:44:22;;;;;;;17.10;9.83;;;7.50;99.90;;;;;;4993897;28;20208;-75
2022/01/01 07:46:50;;;;;;;10.70;8.60;;;7.50;99.90;;;;;;4993977;28;20184;-74
2022/01/01 07:49:16;;;;;;;16.17;8.30;;;7.60;99.90;;;;;;4993936;28;20195;-74
2022/01/01 07:51:41;;;;;;;10.80;7.77;;;7.70;99.90;;;;;;4993655;28;20437;-74
2022/01/01 07:54:07;;;;;;;20.80;8.60;;;7.70;99.90;;;;;;4993462;28;20435;-74
2022/01/01 07:56:33;;;;;;;13.47;8.87;;;7.80;99.90;;;;;;4993806;28;20188;-75
2022/01/01 07:58:58;;;;;;;13.53;8.80;;;7.80;99.90;;;;;;4993465;28;20422;-75
2022/01/01 08:01:24;;;;;;;15.47;8.63;;;7.90;99.90;;;;;;4995290;28;20204;-75
2022/01/01 08:03:49;;;;;;;15.50;8.07;;;8.00;99.90;;;;;;4996428;28;20289;-76
2022/01/01 08:06:16;;;;;;;12.10;8.50;;;8.10;99.90;;;;;;4994500;28;20186;-77
2022/01/01 08:08:41;;;;;;;12.83;9.17;;;8.20;99.90;;;;;;4978212;28;20229;-76
2022/01/01 08:11:07;;;;;;;12.97;8.37;;;8.30;99.90;;;;;;4984820;28;20527;-75
2022/01/01 08:13:35;;;;;;;11.87;6.97;;;8.40;99.90;;;;;;4986232;28;20212;-75
2022/01/01 08:16:01;;;;;;;13.50;7.13;;;8.50;99.90;;;;;;4987143;28;20198;-79
2022/01/01 08:18:27;;;;;;;11.67;7.50;;;8.60;99.90;;;;;;4988909;28;20862;-75
2022/01/01 08:20:52;;;;;;;10.17;7.40;;;8.60;99.90;;;;;;4986601;28;20967;-75
2022/01/01 08:23:18;;;;;;;11.33;7.60;;;8.70;99.90;;;;;;4995447;28;20217;-76
2022/01/01 08:25:43;;;;;;;12.23;7.97;;;8.60;99.90;;;;;;4993856;28;20217;-76
2022/01/01 08:28:09;;;;;;;11.53;7.63;;;8.60;99.90;;;;;;4992970;28;20719;-75
2022/01/01 08:30:35;;;;;;;12.83;7.30;;;8.60;99.90;;;;;;4993517;28;20204;-76
2022/01/01 08:33:04;;;;;;;13.60;7.80;;;8.50;99.90;;;;;;4985775;28;20470;-77
2022/01/01 08:35:34;;;;;;;13.50;7.50;;;8.50;99.90;;;;;;4979249;28;20202;-77
2022/01/01 08:38:01;;;;;;;11.57;7.63;;;8.50;99.90;;;;;;4973469;28;20460;-76
2022/01/01 08:40:28;;;;;;;8.80;7.13;;;8.50;99.90;;;;;;4973510;28;20465;-75
2022/01/01 08:42:54;;;;;;;10.00;6.63;;;8.50;99.90;;;;;;4972821;28;20488;-77
2022/01/01 08:45:20;;;;;;;9.80;7.27;;;8.60;99.90;;;;;;4973652;28;20442;-77
2022/01/01 08:47:45;;;;;;;10.80;7.53;;;8.70;99.90;;;;;;4972887;28;20511;-77
2022/01/01 08:50:11;;;;;;;9.97;7.20;;;8.70;99.90;;;;;;4973470;28;20452;-76
2022/01/01 08:52:37;;;;;;;8.30;6.63;;;8.80;99.90;;;;;;4974018;28;20234;-74
2022/01/01 08:55:03;;;;;;;10.63;7.73;;;8.80;99.90;;;;;;4973053;28;20433;-74
2022/01/01 08:57:32;;;;;;;9.90;7.50;;;8.80;99.90;;;;;;4973586;28;20244;-75
2022/01/01 08:59:58;;;;;;;9.53;6.93;;;8.90;99.90;;;;;;4984880;28;20452;-76
2022/01/01 09:02:25;;;;;;;10.90;6.87;;;9.00;99.90;;;;;;4993078;28;20452;-75
2022/01/01 09:04:50;;;;;;;8.23;6.63;;;9.10;99.90;;;;;;4994046;28;20447;-75
2022/01/01 09:07:17;;;;;;;7.80;6.27;;;9.20;99.90;;;;;;4994626;28;20455;-75
2022/01/01 09:09:43;;;;;;;7.20;5.83;;;9.30;99.90;;;;;;4994078;28;20269;-76
2022/01/01 09:12:09;;;;;;;10.20;6.80;;;9.40;99.90;;;;;;4994146;28;20502;-75
2022/01/01 09:14:35;;;;;;;9.73;6.03;;;9.50;99.90;;;;;;4977461;28;20284;-75
2022/01/01 09:17:02;;;;;;;9.30;6.20;;;9.70;99.90;;;;;;4994059;28;20456;-76
2022/01/01 09:19:27;;;;;;;7.00;4.90;;;10.10;99.90;;;;;;4994689;28;20437;-76
2022/01/01 09:21:53;;;;;;;10.60;5.30;;;11.10;99.90;;;;;;4992993;28;20491;-75
2022/01/01 09:24:18;;;;;;;7.00;5.40;;;12.20;99.90;;;;;;4993243;28;20760;-75
2022/01/01 09:26:44;;;;;;;6.17;5.50;;;13.40;99.90;;;;;;4993378;28;20215;-76
2022/01/01 09:29:10;;;;;;;9.80;5.70;;;14.40;99.90;;;;;;4993378;28;20233;-75
2022/01/01 09:31:38;;;;;;;5.93;5.33;;;15.00;99.90;;;;;;4994791;28;20235;-75
2022/01/01 09:34:05;;;;;;;7.13;5.17;;;15.80;99.90;;;;;;4993866;28;20578;-75
2022/01/01 09:36:31;;;;;;;8.60;6.30;;;16.10;99.90;;;;;;4993016;28;20449;-73
2022/01/01 09:38:56;;;;;;;9.83;6.23;;;16.60;99.90;;;;;;5002725;28;20484;-74
2022/01/01 09:41:22;;;;;;;7.80;5.57;;;16.90;99.90;;;;;;5001887;28;20464;-76
2022/01/01 09:43:48;;;;;;;8.93;5.37;;;17.00;99.90;;;;;;5011703;28;20212;-76
2022/01/01 09:46:14;;;;;;;7.43;6.27;;;16.80;99.90;;;;;;5012313;28;20238;-75
2022/01/01 09:48:41;;;;;;;6.83;5.90;;;16.70;99.90;;;;;;5012250;28;20455;-75
2022/01/01 09:51:07;;;;;;;4.57;4.20;;;16.60;99.90;;;;;;5012652;28;20441;-73
2022/01/01 09:53:33;;;;;;;5.50;4.13;;;16.70;99.90;;;;;;5002489;28;20958;-74
2022/01/01 09:56:00;;;;;;;5.60;4.10;;;16.60;99.90;;;;;;5005330;28;20646;-73
2022/01/01 09:58:31;;;;;;;5.60;4.60;;;16.60;99.90;;;;;;5005440;28;20449;-72
2022/01/01 10:00:57;;;;;;;6.73;4.97;;;16.70;99.90;;;;;;4993767;28;20998;-73
2022/01/01 10:03:41;;;;;;;5.70;5.10;;;16.80;99.90;;;;;;4993451;28;20463;-73
2022/01/01 10:06:12;;;;;;;5.67;5.07;;;16.50;99.90;;;;;;4992765;28;20488;-73
2022/01/01 10:08:39;;;;;;;8.37;4.57;;;16.80;99.90;;;;;;4992665;28;20978;-73
2022/01/01 10:11:06;;;;;;;7.87;5.33;;;16.90;99.90;;;;;;4992276;28;20433;-75
2022/01/01 10:13:34;;;;;;;6.37;4.60;;;16.90;99.90;;;;;;4991552;28;20480;-73
2022/01/01 10:16:04;;;;;;;7.77;3.83;;;17.10;99.90;;;;;;4994533;28;20429;-71
2022/01/01 10:18:32;;;;;;;5.50;4.10;;;16.90;99.90;;;;;;4995602;28;20461;-71
2022/01/01 10:21:10;;;;;;;4.50;3.57;;;16.70;99.90;;;;;;4994864;28;20958;-73
2022/01/01 10:23:38;;;;;;;4.90;4.13;;;17.00;99.90;;;;;;4995014;28;20478;-73
2022/01/01 10:29:17;;;;;;;3.50;3.20;;;17.20;99.90;;;;;;4994809;28;20481;-73
2022/01/01 10:32:16;;;;;;;6.47;4.13;;;17.40;99.90;;;;;;4995223;28;20456;-72
2022/01/01 10:34:46;;;;;;;4.17;3.70;;;17.50;99.90;;;;;;4951902;28;20449;-76
2022/01/01 10:37:14;;;;;;;4.90;4.40;;;17.60;99.90;;;;;;4995034;28;20435;-75
2022/01/01 10:39:54;;;;;;;5.57;4.60;;;17.70;99.90;;;;;;4994705;28;20434;-73
2022/01/01 10:42:20;;;;;;;5.20;4.13;;;17.60;99.90;;;;;;4994938;28;20445;-74
2022/01/01 10:44:51;;;;;;;5.53;4.23;;;17.70;99.90;;;;;;4995008;28;20440;-73
2022/01/01 10:47:27;;;;;;;10.33;6.53;;;17.50;99.90;;;;;;4978191;28;20446;-73
2022/01/01 10:52:36;;;;;;;9.30;6.53;;;17.50;99.90;;;;;;4994613;28;21015;-74
2022/01/01 10:55:07;;;;;;;7.90;5.23;;;17.50;99.90;;;;;;4994516;28;20437;-73
2022/01/01 10:57:33;;;;;;;26.30;23.50;;;17.50;99.90;;;;;;4977701;28;20214;-74
2022/01/01 11:00:11;;;;;;;9.33;7.87;;;17.50;99.90;;;;;;5002254;28;20449;-71
2022/01/01 11:02:40;;;;;;;8.07;5.80;;;17.30;99.90;;;;;;5007464;28;20885;-74
2022/01/01 11:05:06;;;;;;;11.33;7.00;;;17.00;99.90;;;;;;4976587;28;20431;-73
2022/01/01 11:07:32;;;;;;;9.27;7.30;;;16.70;99.90;;;;;;4976718;28;20446;-74
2022/01/01 11:09:59;;;;;;;10.13;6.10;;;16.30;99.90;;;;;;4976026;28;20420;-73
2022/01/01 11:12:29;;;;;;;6.93;6.03;;;16.30;99.90;;;;;;4976011;28;20455;-73
2022/01/01 11:14:58;;;;;;;7.70;6.90;;;16.40;99.90;;;;;;4976248;28;20413;-73
2022/01/01 11:17:24;;;;;;;10.87;6.70;;;16.20;99.90;;;;;;4975795;28;20410;-75
2022/01/01 11:19:50;;;;;;;8.33;6.73;;;16.10;99.90;;;;;;4975812;28;20422;-72
2022/01/01 11:22:18;;;;;;;9.30;6.67;;;16.00;99.90;;;;;;4975312;28;20438;-73
2022/01/01 11:24:45;;;;;;;8.40;6.80;;;16.00;99.90;;;;;;4975821;28;20412;-73
2022/01/01 11:27:11;;;;;;;9.00;7.03;;;15.80;99.90;;;;;;4975426;28;20438;-73
2022/01/01 11:29:39;;;;;;;7.93;6.33;;;15.60;99.90;;;;;;4976099;28;20419;-73
2022/01/01 11:32:08;;;;;;;8.40;7.00;;;15.40;99.90;;;;;;4975511;28;20554;-73
2022/01/01 11:34:38;;;;;;;114.57;70.97;;;15.60;99.90;;;;;;4975916;28;20486;-73
2022/01/01 11:37:04;;;;;;;25.43;19.70;;;15.50;99.90;;;;;;4976183;28;20983;-75
2022/01/01 11:39:31;;;;;;;10.67;8.37;;;15.40;99.90;;;;;;4976024;28;20943;-73
2022/01/01 11:42:13;;;;;;;8.90;6.10;;;15.50;99.90;;;;;;4975244;28;20443;-73
2022/01/01 11:44:53;;;;;;;8.83;7.80;;;15.40;99.90;;;;;;4958379;28;20438;-75
2022/01/01 11:47:21;;;;;;;6.40;5.57;;;15.40;99.90;;;;;;4976108;28;20434;-73
2022/01/01 11:49:50;;;;;;;10.27;6.20;;;15.50;99.90;;;;;;4975819;28;20416;-73
2022/01/01 11:52:44;;;;;;;11.40;7.67;;;15.50;99.90;;;;;;4975374;28;21086;-73
2022/01/01 11:55:16;;;;;;;9.80;7.10;;;15.50;99.90;;;;;;4975438;28;20424;-73
2022/01/01 11:57:57;;;;;;;8.20;6.50;;;15.40;99.90;;;;;;4975329;28;20471;-73
2022/01/01 12:00:24;;;;;;;10.97;7.20;;;15.40;99.90;;;;;;4975472;28;20498;-73
2022/01/01 12:03:11;;;;;;;7.27;6.00;;;15.40;99.90;;;;;;4975011;28;20860;-73
2022/01/01 12:05:36;;;;;;;9.13;5.90;;;15.30;99.90;;;;;;4975321;28;20920;-72
2022/01/01 12:08:02;;;;;;;12.27;9.47;;;15.40;99.90;;;;;;4975207;28;20430;-73
2022/01/01 12:10:36;;;;;;;10.37;7.50;;;15.40;99.90;;;;;;4975381;28;20180;-73
2022/01/01 12:13:06;;;;;;;20.90;13.33;;;15.30;99.90;;;;;;4974893;28;20234;-73
2022/01/01 12:15:37;;;;;;;11.37;7.90;;;15.20;99.90;;;;;;4975250;28;20442;-73
2022/01/01 12:18:09;;;;;;;13.23;8.23;;;15.20;99.90;;;;;;4975000;28;20441;-73
2022/01/01 12:20:46;;;;;;;9.90;8.90;;;15.00;99.90;;;;;;4975360;28;20828;-73
2022/01/01 12:23:16;;;;;;;11.53;8.57;;;14.90;99.90;;;;;;4974681;28;20429;-73
2022/01/01 12:25:44;;;;;;;15.23;8.60;;;14.70;99.90;;;;;;4976143;28;20423;-73
2022/01/01 12:28:31;;;;;;;11.67;8.13;;;14.70;99.90;;;;;;4976788;28;20795;-74
2022/01/01 12:31:12;;;;;;;12.97;8.57;;;14.60;99.90;;;;;;4975784;28;20439;-75
2022/01/01 12:33:38;;;;;;;10.77;7.70;;;14.60;99.90;;;;;;4974457;28;20513;-74
2022/01/01 12:36:07;;;;;;;8.70;7.63;;;14.50;99.90;;;;;;4974945;28;20415;-75
2022/01/01 12:38:42;;;;;;;11.77;8.30;;;14.40;99.90;;;;;;4973415;28;20512;-75
2022/01/01 12:41:22;;;;;;;10.57;8.10;;;14.40;99.90;;;;;;4974748;28;20454;-73
2022/01/01 12:43:56;;;;;;;12.47;8.23;;;14.40;99.90;;;;;;4973129;28;20450;-73
2022/01/01 12:46:24;;;;;;;10.80;8.60;;;14.40;99.90;;;;;;4988881;28;20838;-74
2022/01/01 12:48:50;;;;;;;9.60;8.57;;;14.30;99.90;;;;;;4993662;28;21136;-76
2022/01/01 12:51:23;;;;;;;10.97;7.83;;;14.20;99.90;;;;;;4976198;28;20564;-76
2022/01/01 12:53:59;;;;;;;11.90;7.70;;;14.20;99.90;;;;;;4993414;28;20845;-75
2022/01/01 12:56:26;;;;;;;10.53;8.30;;;14.10;99.90;;;;;;4993618;28;20466;-75
2022/01/01 12:58:55;;;;;;;15.03;9.13;;;14.10;99.90;;;;;;4982111;28;20457;-75
2022/01/01 13:01:27;;;;;;;12.40;7.87;;;14.00;99.90;;;;;;4994759;28;20462;-75
2022/01/01 13:04:01;;;;;;;11.60;7.93;;;14.00;99.90;;;;;;4994057;28;20807;-74
2022/01/01 13:06:35;;;;;;;10.67;9.03;;;13.90;99.90;;;;;;4994465;28;20462;-74
2022/01/01 13:09:02;;;;;;;9.80;8.00;;;13.90;99.90;;;;;;4993595;28;20540;-74
2022/01/01 13:11:28;;;;;;;15.00;8.60;;;14.00;99.90;;;;;;4992344;28;20955;-73
2022/01/01 13:13:54;;;;;;;9.37;7.27;;;13.90;99.90;;;;;;4991634;28;20474;-73
2022/01/01 13:16:20;;;;;;;9.67;7.90;;;13.90;99.90;;;;;;4991937;28;20549;-74
2022/01/01 13:18:46;;;;;;;11.77;8.07;;;13.90;99.90;;;;;;4992043;28;20202;-73
2022/01/01 13:21:12;;;;;;;11.70;7.53;;;13.90;99.90;;;;;;4991485;28;20466;-74
2022/01/01 13:23:38;;;;;;;9.50;7.50;;;13.80;99.90;;;;;;4991751;28;20214;-73
2022/01/01 13:26:04;;;;;;;10.83;7.83;;;13.70;99.90;;;;;;4991618;28;20203;-75
2022/01/01 13:28:33;;;;;;;11.60;8.23;;;13.70;99.90;;;;;;4991628;28;20477;-76
2022/01/01 13:31:00;;;;;;;11.10;7.93;;;13.70;99.90;;;;;;4991148;28;20442;-73
2022/01/01 13:33:27;;;;;;;11.30;7.87;;;13.70;99.90;;;;;;4991769;28;20472;-73
2022/01/01 13:35:55;;;;;;;11.50;7.13;;;13.60;99.90;;;;;;4991876;28;20572;-74
2022/01/01 13:38:22;;;;;;;7.63;6.93;;;13.60;99.90;;;;;;4991914;28;20548;-74
2022/01/01 13:40:54;;;;;;;8.57;7.03;;;13.60;99.90;;;;;;4991498;28;20466;-74
2022/01/01 13:43:25;;;;;;;9.63;7.03;;;13.60;99.90;;;;;;4991904;28;20790;-74
2022/01/01 13:46:16;;;;;;;9.27;6.97;;;13.50;99.90;;;;;;4992041;28;20442;-73
2022/01/01 13:48:50;;;;;;;16.07;7.37;;;13.50;99.90;;;;;;4992562;28;20906;-75
2022/01/01 13:51:19;;;;;;;10.33;6.63;;;13.50;99.90;;;;;;4977834;28;20450;-74
2022/01/01 13:53:45;;;;;;;7.63;6.07;;;13.40;99.90;;;;;;4995300;28;20481;-74
2022/01/01 13:56:21;;;;;;;11.63;6.30;;;13.40;99.90;;;;;;4995748;28;20434;-74
2022/01/01 13:58:50;;;;;;;7.87;5.90;;;13.40;99.90;;;;;;4995317;28;20202;-75
2022/01/01 14:01:18;;;;;;;9.10;6.10;;;13.30;99.90;;;;;;4977757;28;20442;-73
2022/01/01 14:03:45;;;;;;;7.13;5.63;;;13.30;99.90;;;;;;4995848;28;20591;-74
2022/01/01 14:06:11;;;;;;;9.63;6.33;;;13.30;99.90;;;;;;4995429;28;20453;-75
2022/01/01 14:08:38;;;;;;;8.77;7.30;;;13.20;99.90;;;;;;4995837;28;20449;-74
2022/01/01 14:11:05;;;;;;;8.03;6.27;;;13.20;99.90;;;;;;4995438;28;20522;-73
2022/01/01 14:13:36;;;;;;;7.80;6.20;;;13.10;99.90;;;;;;4995156;28;20482;-74
2022/01/01 14:16:15;;;;;;;8.47;6.90;;;13.10;99.90;;;;;;4995828;28;20950;-74
2022/01/01 14:18:43;;;;;;;10.50;7.30;;;13.10;99.90;;;;;;4995402;28;20867;-78
2022/01/01 14:21:09;;;;;;;10.67;6.03;;;13.00;99.90;;;;;;4994921;28;20438;-74
2022/01/01 14:23:36;;;;;;;9.90;6.70;;;13.00;99.90;;;;;;4995331;28;20462;-73
2022/01/01 14:26:07;;;;;;;8.43;6.07;;;13.00;99.90;;;;;;4995137;28;20508;-74
2022/01/01 14:28:33;;;;;;;8.87;6.17;;;13.00;99.90;;;;;;4995391;28;20474;-73
2022/01/01 14:31:02;;;;;;;7.47;6.13;;;12.90;99.90;;;;;;4994905;28;20453;-72
2022/01/01 14:33:29;;;;;;;8.50;5.03;;;12.90;99.90;;;;;;4994917;28;20496;-74
2022/01/01 14:36:01;;;;;;;5.77;5.23;;;12.90;99.90;;;;;;4994746;28;20443;-74
2022/01/01 14:38:31;;;;;;;9.77;5.70;;;12.90;99.90;;;;;;4994794;28;20798;-74
2022/01/01 14:40:58;;;;;;;7.30;5.83;;;12.80;99.90;;;;;;4994404;28;20434;-74
2022/01/01 14:43:24;;;;;;;8.73;6.07;;;12.80;99.90;;;;;;4994612;28;20533;-74
2022/01/01 14:45:51;;;;;;;12.67;6.73;;;12.80;99.90;;;;;;4994394;28;20528;-73
2022/01/01 14:48:23;;;;;;;8.10;4.90;;;12.80;99.90;;;;;;4995053;28;20215;-73
2022/01/01 14:50:56;;;;;;;12.50;7.67;;;12.70;99.90;;;;;;4994418;28;20445;-73
2022/01/01 14:53:30;;;;;;;27.70;15.77;;;12.70;99.90;;;;;;4994456;28;21001;-74
2022/01/01 14:56:17;;;;;;;25.20;17.17;;;12.60;99.90;;;;;;4994641;28;20426;-73
2022/01/01 14:58:50;;;;;;;52.23;29.73;;;12.50;99.90;;;;;;4976941;28;20532;-73
2022/01/01 15:01:15;;;;;;;44.53;26.07;;;12.40;99.90;;;;;;4993609;28;20496;-75
2022/01/01 15:03:41;;;;;;;46.70;25.33;;;12.30;99.90;;;;;;4995776;28;20613;-71
2022/01/01 15:06:07;;;;;;;33.97;19.30;;;12.10;99.90;;;;;;4997050;28;20701;-72
2022/01/01 15:08:34;;;;;;;26.03;15.40;;;11.90;99.90;;;;;;4990192;28;20219;-72
2022/01/01 15:11:00;;;;;;;26.00;14.43;;;11.80;99.90;;;;;;4991403;28;20477;-72
2022/01/01 15:13:27;;;;;;;22.73;9.93;;;11.60;99.90;;;;;;4988900;28;20505;-73
2022/01/01 15:15:56;;;;;;;11.83;7.20;;;11.40;99.90;;;;;;4991321;28;20477;-73
2022/01/01 15:18:22;;;;;;;9.83;7.40;;;11.30;99.90;;;;;;4989232;28;20444;-73
2022/01/01 15:20:57;;;;;;;15.77;7.47;;;11.20;99.90;;;;;;4992561;28;20444;-73
2022/01/01 15:23:47;;;;;;;9.07;6.53;;;11.00;99.90;;;;;;4988493;28;20450;-74
2022/01/01 15:26:14;;;;;;;13.07;6.83;;;10.80;99.90;;;;;;4971918;28;20496;-75
2022/01/01 15:28:40;;;;;;;10.30;7.33;;;10.70;99.90;;;;;;4973905;28;20480;-73
2022/01/01 15:31:12;;;;;;;13.47;6.90;;;10.50;99.90;;;;;;4991396;28;20515;-74
2022/01/01 15:33:42;;;;;;;8.03;6.50;;;10.40;99.90;;;;;;4994688;28;20476;-73
2022/01/01 15:38:53;;;;;;;8.97;5.87;;;10.10;99.90;;;;;;4988612;28;20533;-72
2022/01/01 15:43:45;;;;;;;12.60;6.20;;;9.90;99.90;;;;;;4990055;28;20430;-73
2022/01/01 15:46:10;;;;;;;8.60;6.50;;;9.80;99.90;;;;;;4993902;28;20671;-71
2022/01/01 15:48:36;;;;;;;7.63;6.93;;;9.70;99.90;;;;;;4994043;28;20294;-73
2022/01/01 15:51:02;;;;;;;8.80;6.63;;;9.60;99.90;;;;;;4990460;28;20236;-72
2022/01/01 15:53:30;;;;;;;9.80;5.73;;;9.40;99.90;;;;;;4989392;28;20284;-72
2022/01/01 15:56:12;;;;;;;7.47;5.93;;;9.30;99.90;;;;;;4974284;28;20534;-71
2022/01/01 15:58:50;;;;;;;9.88;6.32;;;9.30;99.90;;;;;;4988283;28;20440;-72
2022/01/01 16:01:41;;;;;;;9.13;6.50;;;9.20;99.90;;;;;;5004309;28;20196;-73
2022/01/01 16:04:21;;;;;;;8.87;5.33;;;9.10;99.90;;;;;;5013174;28;20452;-76
2022/01/01 16:06:49;;;;;;;7.73;5.93;;;9.00;99.90;;;;;;5012779;28;20447;-74
2022/01/01 16:09:32;;;;;;;8.60;6.30;;;8.90;99.90;;;;;;5012849;28;20471;-74
2022/01/01 16:12:01;;;;;;;9.70;6.07;;;8.80;99.90;;;;;;4994283;28;20459;-75
2022/01/01 16:14:36;;;;;;;7.27;5.50;;;8.70;99.90;;;;;;5012128;28;20480;-75
2022/01/01 16:17:07;;;;;;;7.20;5.87;;;8.60;99.90;;;;;;5012782;28;20446;-75
2022/01/01 16:19:36;;;;;;;17.10;6.03;;;8.50;99.90;;;;;;4995189;28;20447;-75
2022/01/01 16:22:02;;;;;;;10.33;6.57;;;8.40;99.90;;;;;;5012459;28;20438;-75
2022/01/01 16:24:28;;;;;;;11.30;6.30;;;8.30;99.90;;;;;;5012187;28;20462;-76
2022/01/01 16:26:55;;;;;;;7.70;5.60;;;8.30;99.90;;;;;;5012241;28;20501;-76
2022/01/01 16:29:21;;;;;;;7.50;5.00;;;8.20;99.90;;;;;;5001010;28;20218;-76
2022/01/01 16:31:47;;;;;;;9.00;6.17;;;8.20;99.90;;;;;;4978504;28;20476;-76
2022/01/01 16:34:18;;;;;;;8.27;5.80;;;8.10;99.90;;;;;;4955996;28;20484;-77
2022/01/01 16:36:43;;;;;;;10.43;6.70;;;8.00;99.90;;;;;;4973470;28;20196;-75
2022/01/01 16:39:09;;;;;;;7.63;6.53;;;7.90;99.90;;;;;;4973567;28;20450;-76
2022/01/01 16:41:37;;;;;;;12.00;6.70;;;7.90;99.90;;;;;;4955988;28;20252;-76
2022/01/01 16:44:13;;;;;;;12.97;6.90;;;7.80;99.90;;;;;;4973166;28;20222;-76
2022/01/01 16:47:03;;;;;;;10.77;7.27;;;7.70;99.90;;;;;;4973602;28;20447;-76
2022/01/01 16:49:40;;;;;;;11.30;7.60;;;7.70;99.90;;;;;;4973027;28;20972;-76
2022/01/01 16:52:26;;;;;;;9.70;7.37;;;7.60;99.90;;;;;;4972938;28;20955;-76
2022/01/01 16:54:54;;;;;;;13.33;7.13;;;7.60;99.90;;;;;;4973055;28;20437;-76
2022/01/01 16:57:21;;;;;;;13.53;8.10;;;7.60;99.90;;;;;;4972880;28;20433;-76
2022/01/01 16:59:59;;;;;;;11.03;7.23;;;7.60;99.90;;;;;;4969941;28;20538;-77
2022/01/01 17:02:32;;;;;;;12.23;7.70;;;7.50;99.90;;;;;;4992072;28;20438;-77
2022/01/01 17:05:04;;;;;;;13.93;9.87;;;7.40;99.90;;;;;;4991739;28;20455;-77
2022/01/01 17:07:34;;;;;;;10.90;8.40;;;7.30;99.90;;;;;;4992113;28;20520;-76
2022/01/01 17:10:00;;;;;;;14.93;7.27;;;7.30;99.90;;;;;;4991940;28;20436;-75
2022/01/01 17:12:26;;;;;;;16.23;7.60;;;7.30;99.90;;;;;;4991763;28;20433;-76
2022/01/01 17:14:51;;;;;;;12.53;8.47;;;7.20;99.90;;;;;;4991774;28;20254;-76
2022/01/01 17:17:40;;;;;;;9.80;7.50;;;7.20;99.90;;;;;;4992058;28;20200;-77
2022/01/01 17:20:15;;;;;;;13.37;8.97;;;7.20;99.90;;;;;;4984708;28;20193;-77
2022/01/01 17:22:50;;;;;;;10.30;8.20;;;7.10;99.90;;;;;;5008061;28;20526;-77
2022/01/01 17:25:24;;;;;;;13.00;10.00;;;7.10;99.90;;;;;;5005498;28;20438;-78
2022/01/01 17:27:58;;;;;;;12.23;8.20;;;7.00;99.90;;;;;;5000095;28;20970;-77
2022/01/01 17:30:27;;;;;;;10.27;7.57;;;7.00;99.90;;;;;;4996642;28;20466;-77